Time;durP1;ratioP1;P1;durP2;ratioP2;P2;SDS_P1;SDS_P2;PMS_P1;PMS_P2;Temp;Humidity;BMP_temperature;BMP_pressure;BME280_temperature;BME280_humidity;BME280_pressure;Samples;Min_cycle;Max_cycle;Signal;HPM_P1;HPM_P2
2023/01/28 00:00:51;;;;;;;4.88;2.25;;;;;;;-144.47;100.00;53154.03;4994394;28;20034;-67
2023/01/28 00:03:17;;;;;;;8.40;2.78;;;;;;;-144.47;100.00;53142.09;4998903;28;20022;-65
2023/01/28 00:05:43;;;;;;;9.00;2.72;;;;;;;-144.47;100.00;53161.97;5029443;22;20213;-67
2023/01/28 00:08:09;;;;;;;8.77;2.60;;;;;;;-144.47;100.00;53167.94;5015704;28;20030;-67
2023/01/28 00:10:38;;;;;;;7.75;2.72;;;;;;;-144.47;100.00;53152.03;5019522;28;20490;-68
2023/01/28 00:13:04;;;;;;;7.40;2.47;;;;;;;-144.47;100.00;53144.09;5015871;28;20033;-68
2023/01/28 00:15:29;;;;;;;5.05;2.40;;;;;;;-144.47;100.00;53150.06;5021593;28;20025;-68
2023/01/28 00:17:55;;;;;;;9.40;2.85;;;;;;;-144.47;100.00;53146.09;5014568;28;20386;-67
2023/01/28 00:20:20;;;;;;;7.68;2.72;;;;;;;-144.47;100.00;53158.00;5020694;28;20084;-67
2023/01/28 00:22:49;;;;;;;5.07;2.00;;;;;;;-144.47;100.00;53156.00;5014519;28;20491;-64
2023/01/28 00:25:15;;;;;;;9.93;2.17;;;;;;;-144.47;100.00;53161.97;5020661;28;20034;-68
2023/01/28 00:27:40;;;;;;;7.95;2.33;;;;;;;-144.47;100.00;53102.38;5008947;28;20026;-68
2023/01/28 00:30:06;;;;;;;6.75;2.45;;;;;;;-144.47;99.82;53118.28;5007341;28;20506;-62
2023/01/28 00:32:31;;;;;;;5.95;2.25;;;;;;;-144.47;99.20;53167.94;5009885;28;20033;-66
2023/01/28 00:34:57;;;;;;;4.82;2.00;;;;;;;-144.47;99.01;53126.22;5010257;28;20056;-68
2023/01/28 00:37:22;;;;;;;4.43;2.00;;;;;;;-144.47;98.73;53132.19;5010071;28;20499;-67
2023/01/28 00:39:48;;;;;;;3.58;1.80;;;;;;;-144.47;98.45;53140.13;5010173;28;20440;-64
2023/01/28 00:42:13;;;;;;;8.05;2.63;;;;;;;-144.47;98.16;53158.00;5028814;28;20029;-67
2023/01/28 00:44:39;;;;;;;4.22;2.20;;;;;;;-144.47;97.66;53140.13;5027916;28;20059;-67
2023/01/28 00:47:04;;;;;;;7.55;1.85;;;;;;;-144.47;97.58;53146.09;5009172;28;20057;-67
2023/01/28 00:49:30;;;;;;;13.23;2.00;;;;;;;-144.47;97.14;53144.09;5023106;28;20036;-68
2023/01/28 00:51:55;;;;;;;12.07;2.50;;;;;;;-144.47;97.23;53160.00;5019260;28;20038;-65
2023/01/28 00:54:20;;;;;;;6.22;2.28;;;;;;;-144.47;97.33;53142.09;5009507;28;20267;-67
2023/01/28 00:56:46;;;;;;;6.30;2.10;;;;;;;-144.47;97.51;53156.00;5029780;28;20025;-66
2023/01/28 00:59:12;;;;;;;13.43;3.15;;;;;;;-144.47;97.49;53163.97;5015648;28;20103;-70
2023/01/28 01:01:37;;;;;;;10.48;2.13;;;;;;;-144.47;97.30;53142.09;5016009;28;20041;-66
2023/01/28 01:04:03;;;;;;;4.35;2.00;;;;;;;-144.47;96.99;53136.16;5020948;28;20033;-66
2023/01/28 01:06:39;;;;;;;4.72;2.13;;;;;;;-144.47;97.16;53142.09;5027629;28;20053;-67
2023/01/28 01:09:07;;;;;;;5.78;2.35;;;;;;;-144.47;96.95;53146.09;5014076;28;20026;-68
2023/01/28 01:11:33;;;;;;;9.80;2.28;;;;;;;-144.47;96.33;53167.94;5008601;28;20109;-67
2023/01/28 01:14:00;;;;;;;19.20;2.53;;;;;;;-144.47;96.63;53138.13;5009121;28;20037;-65
2023/01/28 01:16:32;;;;;;;6.00;2.10;;;;;;;-144.47;96.14;53156.00;5008889;28;20029;-68
2023/01/28 01:18:58;;;;;;;9.18;2.35;;;;;;;-144.47;96.34;53144.09;5011082;28;20137;-66
2023/01/28 01:21:25;;;;;;;7.78;2.20;;;;;;;-144.47;96.22;53140.13;5027420;28;20536;-66
2023/01/28 01:23:52;;;;;;;13.50;2.50;;;;;;;-144.47;96.09;53161.97;5023755;28;20022;-67
2023/01/28 01:26:17;;;;;;;7.47;2.60;;;;;;;-144.47;96.16;53156.00;5019706;28;20108;-63
2023/01/28 01:28:43;;;;;;;12.65;2.53;;;;;;;-144.47;96.23;53175.88;5012307;28;20060;-69
2023/01/28 01:31:16;;;;;;;12.52;2.55;;;;;;;-144.47;96.12;53150.06;5004680;28;20030;-66
2023/01/28 01:33:42;;;;;;;7.07;2.45;;;;;;;-144.47;96.17;53154.03;5017683;28;20025;-67
2023/01/28 01:36:11;;;;;;;14.75;2.60;;;;;;;-144.47;96.47;53167.94;5028115;28;20055;-63
2023/01/28 01:38:37;;;;;;;7.90;2.42;;;;;;;-144.47;96.42;53146.09;5020405;28;20022;-65
2023/01/28 01:41:04;;;;;;;7.18;2.40;;;;;;;-144.47;96.55;53146.09;5008706;28;20026;-66
2023/01/28 01:43:51;;;;;;;8.27;2.90;;;;;;;-144.47;96.32;53158.00;5017965;28;20018;-66
2023/01/28 01:46:21;;;;;;;6.28;2.13;;;;;;;-144.47;96.54;53146.09;5009612;28;20083;-67
2023/01/28 01:48:47;;;;;;;8.30;3.00;;;;;;;-144.47;96.64;53154.03;5008354;28;20040;-66
2023/01/28 01:51:18;;;;;;;4.50;2.13;;;;;;;-144.47;97.04;53144.09;5020696;28;20030;-64
2023/01/28 01:53:48;;;;;;;12.35;2.67;;;;;;;-144.47;96.71;53154.03;5009297;28;20030;-66
2023/01/28 01:56:17;;;;;;;5.03;1.83;;;;;;;-144.47;96.63;53154.03;5020494;28;20529;-67
2023/01/28 01:58:44;;;;;;;;;;;;;;;-144.47;96.50;53148.06;5023988;28;20557;-65
2023/01/28 02:01:10;;;;;;;7.20;2.20;;;;;;;-144.47;96.44;53154.03;5020125;28;19996;-67
2023/01/28 02:03:46;;;;;;;6.82;2.58;;;;;;;-144.47;96.32;53152.03;5010256;28;20044;-65
2023/01/28 02:06:12;;;;;;;9.65;2.50;;;;;;;-144.47;96.31;53116.28;5019889;28;20026;-66
2023/01/28 02:08:37;;;;;;;14.50;2.22;;;;;;;-144.47;96.30;53161.97;5012148;28;20041;-65
2023/01/28 02:11:06;;;;;;;12.68;2.03;;;;;;;-144.47;96.24;53173.88;5022362;28;20029;-66
2023/01/28 02:13:37;;;;;;;8.25;1.92;;;;;;;-144.47;96.46;53160.00;5019152;28;20029;-67
2023/01/28 02:16:04;;;;;;;8.15;3.47;;;;;;;-144.47;96.55;53150.06;5020797;28;20036;-67
2023/01/28 02:18:31;;;;;;;3.65;1.65;;;;;;;-144.47;96.26;53152.03;5029510;28;20104;-67
2023/01/28 02:21:34;;;;;;;9.00;2.28;;;;;;;-144.47;96.04;53146.09;5019859;28;20048;-67
2023/01/28 02:23:59;;;;;;;13.35;2.88;;;;;;;-144.47;95.75;53152.03;5012031;28;20033;-67
2023/01/28 02:26:30;;;;;;;7.53;2.90;;;;;;;-144.47;95.92;53154.03;5014693;28;20086;-67
2023/01/28 02:28:58;;;;;;;8.75;2.63;;;;;;;-144.47;95.80;53177.88;5026282;28;20029;-66
2023/01/28 02:31:31;;;;;;;13.97;3.53;;;;;;;-144.47;95.78;53158.00;5005664;28;20530;-63
2023/01/28 02:34:24;;;;;;;10.55;2.97;;;;;;;-144.47;95.87;53165.94;5012106;28;20030;-67
2023/01/28 02:36:50;;;;;;;7.70;2.47;;;;;;;-144.47;95.82;53173.88;5010776;28;20030;-65
2023/01/28 02:39:19;;;;;;;6.55;2.42;;;;;;;-144.47;95.94;53142.09;5024726;28;20103;-68
2023/01/28 02:41:50;;;;;;;5.25;2.88;;;;;;;-144.47;96.17;53163.97;5019502;28;20155;-68
2023/01/28 02:44:16;;;;;;;12.18;3.45;;;;;;;-144.47;95.74;53165.94;5017292;28;20032;-68
2023/01/28 02:49:42;;;;;;;9.48;2.38;;;;;;;-144.47;95.87;53152.03;5026534;28;20084;-68
2023/01/28 02:55:31;;;;;;;5.20;2.35;;;;;;;-144.47;95.67;53181.84;5014603;28;20059;-67
2023/01/28 02:57:59;;;;;;;9.43;2.53;;;;;;;-144.47;95.99;53175.88;5018005;28;20033;-71
2023/01/28 03:00:27;;;;;;;4.57;1.83;;;;;;;-144.47;95.99;53161.97;5017199;28;20030;-67
2023/01/28 03:03:06;;;;;;;12.67;4.20;;;;;;;-144.47;95.42;53134.16;5022690;28;20064;-66
2023/01/28 03:06:02;;;;;;;7.63;2.33;;;;;;;-144.47;95.58;53158.00;5023574;28;20065;-62
2023/01/28 03:38:57;;;;;;;12.20;2.60;;;;;;;-144.47;94.70;53154.03;5022946;28;20463;-67
2023/01/28 03:41:25;;;;;;;41.17;14.85;;;;;;;-144.47;94.40;53175.88;5017310;28;20112;-68
2023/01/28 03:43:51;;;;;;;13.82;4.80;;;;;;;-144.47;94.51;53179.84;5030474;28;20032;-66
2023/01/28 03:46:17;;;;;;;16.25;5.30;;;;;;;-144.47;94.35;53169.91;5028296;28;20021;-64
2023/01/28 03:48:43;;;;;;;18.58;6.78;;;;;;;-144.47;94.13;53163.97;5030193;28;20407;-68
2023/01/28 03:51:08;;;;;;;24.65;8.30;;;;;;;-144.47;94.21;53181.84;5023293;28;20562;-64
2023/01/28 03:53:34;;;;;;;12.90;4.95;;;;;;;-144.47;95.09;53185.81;5028746;28;20021;-68
2023/01/28 03:55:59;;;;;;;28.08;7.63;;;;;;;-144.47;95.02;53158.00;5015721;28;20462;-67
2023/01/28 03:58:39;;;;;;;23.10;8.82;;;;;;;-144.47;95.37;53150.06;5019099;28;20109;-67
2023/01/28 04:01:04;;;;;;;26.52;7.82;;;;;;;-144.47;95.10;53169.91;5015723;28;20079;-68
2023/01/28 04:03:29;;;;;;;13.43;4.40;;;;;;;-144.47;95.37;53169.91;5017079;28;20054;-63
2023/01/28 04:06:01;;;;;;;47.80;16.65;;;;;;;-144.47;95.72;53173.88;5022820;28;20026;-67
2023/01/28 04:08:27;;;;;;;18.77;6.07;;;;;;;-144.47;95.53;53156.00;5013736;28;20036;-66
2023/01/28 04:10:52;;;;;;;28.50;8.10;;;;;;;-144.47;95.57;53179.84;5022741;28;20018;-68
2023/01/28 04:13:17;;;;;;;67.30;19.88;;;;;;;-144.47;96.18;53171.91;5022801;28;20033;-66
2023/01/28 04:15:44;;;;;;;6.88;2.85;;;;;;;-144.47;95.94;53161.97;5016797;28;20033;-68
2023/01/28 04:18:10;;;;;;;48.25;13.45;;;;;;;-144.47;95.83;53213.63;5015171;28;20033;-66
2023/01/28 04:20:36;;;;;;;16.05;4.68;;;;;;;-144.47;95.96;53169.91;5027931;28;20025;-68
2023/01/28 04:23:01;;;;;;;13.05;5.78;;;;;;;-144.47;96.10;53163.97;5015646;28;20071;-66
2023/01/28 04:25:27;;;;;;;5.70;2.47;;;;;;;-144.47;95.87;53150.06;5016592;28;20025;-67
2023/01/28 04:27:52;;;;;;;8.25;3.45;;;;;;;-144.47;95.88;53156.00;5016486;28;20443;-65
2023/01/28 04:30:18;;;;;;;11.07;3.38;;;;;;;-144.47;95.73;53177.88;5009732;28;20022;-64
2023/01/28 04:32:45;;;;;;;4.97;2.17;;;;;;;-144.47;95.90;53156.00;5015027;28;20026;-68
2023/01/28 04:35:10;;;;;;;11.23;3.05;;;;;;;-144.47;96.10;53189.78;5012331;28;20369;-66
2023/01/28 04:37:36;;;;;;;8.85;2.70;;;;;;;-144.47;96.46;53158.00;5016273;28;20029;-66
2023/01/28 04:40:02;;;;;;;5.25;2.33;;;;;;;-144.47;96.61;53156.00;5022834;28;20026;-68
2023/01/28 04:42:27;;;;;;;7.13;2.53;;;;;;;-144.47;97.16;53130.19;5009078;28;20464;-65
2023/01/28 04:44:52;;;;;;;5.78;2.38;;;;;;;-144.47;96.94;53160.00;5010274;28;20018;-67
2023/01/28 04:47:18;;;;;;;7.97;2.22;;;;;;;-144.47;96.58;53191.78;5021743;28;20033;-66
2023/01/28 04:49:44;;;;;;;7.32;2.53;;;;;;;-144.47;96.43;53161.97;5017922;28;20021;-67
2023/01/28 04:52:09;;;;;;;7.75;2.80;;;;;;;-144.47;96.68;53156.00;5029352;28;20036;-64
2023/01/28 04:54:34;;;;;;;7.13;2.20;;;;;;;-144.47;96.49;53189.78;5030064;28;20025;-66
2023/01/28 04:57:00;;;;;;;7.32;2.75;;;;;;;-144.47;96.86;53160.00;5028541;28;20029;-68
2023/01/28 04:59:25;;;;;;;7.88;2.35;;;;;;;-144.47;96.71;53181.84;5009969;28;20045;-66
2023/01/28 05:01:50;;;;;;;10.82;2.45;;;;;;;-144.47;97.16;53191.78;5009833;28;20046;-68
2023/01/28 05:04:16;;;;;;;5.03;1.95;;;;;;;-144.47;96.79;53175.88;5016781;28;20029;-65
2023/01/28 05:06:41;;;;;;;7.05;3.13;;;;;;;-144.47;97.03;53187.78;5028268;28;20076;-67
2023/01/28 05:09:07;;;;;;;7.85;3.30;;;;;;;-144.47;96.93;53177.88;5017055;28;20021;-67
2023/01/28 05:11:32;;;;;;;4.82;2.25;;;;;;;-144.47;96.61;53171.91;5029492;28;20040;-69
2023/01/28 05:13:57;;;;;;;6.18;2.13;;;;;;;-144.47;97.09;53177.88;5015427;28;20426;-66
2023/01/28 05:16:23;;;;;;;14.57;3.13;;;;;;;-144.47;97.10;53165.94;5016421;28;20053;-66
2023/01/28 05:18:50;;;;;;;4.68;2.38;;;;;;;-144.47;97.23;53173.88;5022726;28;20022;-66
2023/01/28 05:21:16;;;;;;;9.00;2.88;;;;;;;-144.47;97.12;53169.91;5020539;28;20095;-65
2023/01/28 05:23:41;;;;;;;9.55;3.22;;;;;;;-144.47;97.02;53177.88;5010065;28;20022;-66
2023/01/28 05:26:07;;;;;;;5.47;2.65;;;;;;;-144.47;96.71;53177.88;5009858;28;20034;-65
2023/01/28 05:28:32;;;;;;;13.13;3.58;;;;;;;-144.47;96.88;53161.97;5014670;28;20048;-66
2023/01/28 05:31:03;;;;;;;12.45;2.72;;;;;;;-144.47;96.88;53173.88;5006171;28;20507;-65
2023/01/28 05:33:28;;;;;;;7.05;2.35;;;;;;;-144.47;96.74;53219.56;5009347;28;20367;-63
2023/01/28 05:35:54;;;;;;;7.93;2.95;;;;;;;-144.47;97.14;53217.59;5028197;28;20476;-69
2023/01/28 05:38:19;;;;;;;7.25;2.42;;;;;;;-144.47;96.59;53173.88;5024297;28;20368;-66
2023/01/28 05:40:46;;;;;;;13.57;2.72;;;;;;;-144.47;96.11;53185.81;5025844;28;20605;-67
2023/01/28 05:43:12;;;;;;;7.55;2.97;;;;;;;-144.47;96.27;53199.72;5026564;28;20017;-68
2023/01/28 05:45:37;;;;;;;5.97;2.67;;;;;;;-144.47;96.45;53163.97;5014944;28;20076;-66
2023/01/28 05:48:03;;;;;;;8.55;2.50;;;;;;;-144.47;96.14;53169.91;5031455;28;20021;-67
2023/01/28 05:50:28;;;;;;;6.07;2.65;;;;;;;-144.47;96.49;53181.84;5031176;28;20464;-68
2023/01/28 05:52:53;;;;;;;6.07;2.58;;;;;;;-144.47;96.04;53171.91;5018360;28;20037;-67
2023/01/28 05:55:19;;;;;;;8.73;2.40;;;;;;;-144.47;95.79;53171.91;5019703;28;20037;-66
2023/01/28 05:57:44;;;;;;;6.68;2.50;;;;;;;-144.47;95.68;53175.88;5031032;28;20083;-68
2023/01/28 06:00:11;;;;;;;4.93;2.08;;;;;;;-144.47;96.26;53181.84;5032387;28;20079;-67
2023/01/28 06:02:36;;;;;;;13.05;2.97;;;;;;;-144.47;96.13;53183.81;5013725;28;20119;-67
2023/01/28 06:05:02;;;;;;;7.70;2.78;;;;;;;-144.47;95.52;53177.88;5020695;22;20406;-68
2023/01/28 06:07:27;;;;;;;4.05;2.22;;;;;;;-144.47;95.42;53193.75;4996484;28;20033;-69
2023/01/28 06:09:52;;;;;;;5.97;2.60;;;;;;;-144.47;95.09;53171.91;5011336;28;20056;-69
2023/01/28 06:12:18;;;;;;;7.10;2.63;;;;;;;-144.47;95.56;53207.66;5004887;28;20034;-66
2023/01/28 06:14:43;;;;;;;13.18;2.78;;;;;;;-144.47;94.93;53138.13;4990590;28;20096;-70
2023/01/28 06:17:08;;;;;;;5.82;2.55;;;;;;;-144.47;94.89;53199.72;4991660;28;20234;-66
2023/01/28 06:19:34;;;;;;;9.57;4.00;;;;;;;-144.47;94.47;53150.06;4991919;28;20357;-70
2023/01/28 06:21:59;;;;;;;17.60;8.80;;;;;;;-144.47;94.44;53177.88;4992366;28;20018;-68
2023/01/28 06:24:25;;;;;;;10.02;3.40;;;;;;;-144.47;93.96;53169.91;5003107;28;20670;-67
2023/01/28 06:26:50;;;;;;;10.50;3.88;;;;;;;-144.47;94.17;53179.84;4997406;28;20026;-67
2023/01/28 06:29:15;;;;;;;12.55;3.00;;;;;;;-144.47;94.20;53177.88;4996117;28;20106;-68
2023/01/28 06:31:41;;;;;;;15.95;4.93;;;;;;;-144.47;93.48;53165.94;4992271;28;20022;-69
2023/01/28 06:34:08;;;;;;;7.88;2.92;;;;;;;-144.47;94.23;53209.66;5002995;28;20022;-67
2023/01/28 06:36:36;;;;;;;10.50;3.35;;;;;;;-144.47;93.88;53175.88;4996220;28;20135;-69
2023/01/28 06:39:02;;;;;;;15.85;6.40;;;;;;;-144.47;92.31;53181.84;5010349;28;20066;-69
2023/01/28 06:41:28;;;;;;;7.25;2.92;;;;;;;-144.47;91.51;53146.09;5005266;28;20135;-67
2023/01/28 06:43:53;;;;;;;7.75;2.28;;;;;;;-144.47;91.39;53181.84;4991575;28;20381;-68
2023/01/28 06:46:18;;;;;;;8.57;2.50;;;;;;;-144.47;90.03;53189.78;5009250;28;20030;-71
2023/01/28 06:48:46;;;;;;;8.18;2.13;;;;;;;-144.47;88.93;53173.88;5011173;28;20029;-69
2023/01/28 06:51:11;;;;;;;5.22;1.90;;;;;;;-144.47;88.07;53150.06;5001621;28;20034;-70
2023/01/28 06:53:37;;;;;;;6.25;2.83;;;;;;;-144.47;87.42;53193.75;4990760;28;20030;-67
2023/01/28 06:56:02;;;;;;;5.28;2.10;;;;;;;-144.47;86.37;53205.66;4995224;28;20064;-69
2023/01/28 06:58:28;;;;;;;5.38;2.40;;;;;;;-144.47;86.02;53160.00;5009345;28;20443;-68
2023/01/28 07:00:54;;;;;;;5.57;2.20;;;;;;;-144.47;85.47;53171.91;5009955;28;20191;-68
2023/01/28 07:03:19;;;;;;;6.05;2.78;;;;;;;-144.47;85.32;53152.03;4998594;28;20452;-68
2023/01/28 07:05:45;;;;;;;5.40;1.83;;;;;;;-144.47;82.29;53197.72;4988540;28;20455;-67
2023/01/28 07:08:10;;;;;;;5.50;2.55;;;;;;;-144.47;81.92;53175.88;4998156;28;20448;-69
2023/01/28 07:10:35;;;;;;;5.22;2.47;;;;;;;-144.47;81.81;53187.78;5005414;28;20169;-69
2023/01/28 07:13:01;;;;;;;3.92;1.65;;;;;;;-144.47;79.48;53191.78;4990846;28;20108;-69
2023/01/28 07:15:26;;;;;;;9.20;2.58;;;;;;;-144.47;72.62;53179.84;5008665;28;20040;-72
2023/01/28 07:17:52;;;;;;;6.32;1.30;;;;;;;-144.47;73.64;53161.97;4998267;28;20042;-70
2023/01/28 07:20:17;;;;;;;9.48;2.08;;;;;;;-144.47;76.47;53173.88;4990487;28;20106;-68
2023/01/28 07:22:43;;;;;;;4.80;1.52;;;;;;;-144.47;75.49;53148.06;5001314;28;20121;-68
2023/01/28 07:25:11;;;;;;;18.35;2.35;;;;;;;-144.47;77.53;53161.97;4990952;28;20109;-70
2023/01/28 07:27:36;;;;;;;4.75;1.90;;;;;;;-144.47;76.11;53154.03;5001601;28;20025;-68
2023/01/28 07:30:02;;;;;;;5.32;2.10;;;;;;;-144.47;75.63;53161.97;4986885;28;20022;-70
2023/01/28 07:32:28;;;;;;;3.42;1.90;;;;;;;-144.47;75.97;53152.03;4990744;28;20115;-68
2023/01/28 07:34:53;;;;;;;5.53;1.90;;;;;;;-144.47;74.61;53161.97;4990498;28;20101;-67
2023/01/28 07:37:19;;;;;;;5.25;1.85;;;;;;;-144.47;76.11;53158.00;4989857;28;20227;-68
2023/01/28 07:39:45;;;;;;;4.90;1.98;;;;;;;-144.47;75.87;53154.03;5001761;28;20062;-68
2023/01/28 07:42:10;;;;;;;4.07;1.90;;;;;;;-144.47;76.11;53171.91;5001441;28;20507;-67
2023/01/28 07:44:36;;;;;;;9.30;2.55;;;;;;;-144.47;75.92;53173.88;4996824;28;20065;-65
2023/01/28 07:47:02;;;;;;;5.85;2.05;;;;;;;-144.47;72.94;53156.00;4998619;28;20450;-67
2023/01/28 07:49:28;;;;;;;4.22;1.25;;;;;;;-144.47;68.17;53152.03;4990316;28;20050;-66
2023/01/28 07:51:53;;;;;;;2.60;1.40;;;;;;;-144.47;68.05;53154.03;4987535;28;20088;-66
2023/01/28 07:54:19;;;;;;;4.53;2.25;;;;;;;-144.47;67.91;53154.03;4983762;28;20484;-66
2023/01/28 07:56:44;;;;;;;5.28;1.85;;;;;;;-144.47;68.77;53154.03;4992745;28;20104;-67
2023/01/28 07:59:10;;;;;;;5.95;1.85;;;;;;;-144.47;67.63;53130.19;4993572;28;20049;-69
2023/01/28 08:01:35;;;;;;;3.83;1.73;;;;;;;-144.47;67.46;53150.06;4989821;28;20018;-65
2023/01/28 08:04:00;;;;;;;8.50;2.55;;;;;;;-144.47;67.81;53158.00;4988675;28;20031;-69
2023/01/28 08:06:27;;;;;;;8.10;2.80;;;;;;;-144.47;68.73;53158.00;4986617;28;20084;-71
2023/01/28 08:08:53;;;;;;;8.55;2.42;;;;;;;-144.47;69.74;53150.06;4991298;28;20109;-65
2023/01/28 08:11:18;;;;;;;4.65;1.83;;;;;;;-144.47;69.02;53154.03;4993636;28;20105;-69
2023/01/28 08:13:43;;;;;;;3.67;1.30;;;;;;;-144.47;68.44;53156.00;4987767;28;20096;-67
2023/01/28 08:16:09;;;;;;;3.47;1.73;;;;;;;-144.47;67.71;53160.00;4989222;28;20022;-67
2023/01/28 08:18:34;;;;;;;3.10;1.40;;;;;;;-144.47;66.77;53173.88;4989308;28;20105;-67
2023/01/28 08:20:59;;;;;;;8.45;1.90;;;;;;;-144.47;67.34;53146.09;4993140;28;20150;-67
2023/01/28 08:23:26;;;;;;;5.40;1.73;;;;;;;-144.47;67.60;53173.88;4989245;28;20022;-66
2023/01/28 08:25:52;;;;;;;4.60;1.73;;;;;;;-144.47;66.66;53132.19;4992866;28;20022;-66
2023/01/28 08:28:19;;;;;;;4.05;1.92;;;;;;;-144.47;67.48;53160.00;4989430;28;20109;-68
2023/01/28 08:30:45;;;;;;;2.10;1.40;;;;;;;-144.47;67.25;53165.94;4996483;28;20040;-66
2023/01/28 08:33:12;;;;;;;3.97;1.58;;;;;;;-144.47;68.26;53175.88;4985833;28;20496;-68
2023/01/28 08:35:38;;;;;;;3.60;1.73;;;;;;;-144.47;69.09;53156.00;4998388;28;20108;-68
2023/01/28 08:38:05;;;;;;;6.07;2.55;;;;;;;-144.47;68.17;53158.00;4991990;28;20118;-67
2023/01/28 08:40:31;;;;;;;13.13;3.97;;;;;;;-144.47;68.20;53169.91;4988280;28;20031;-68
2023/01/28 08:42:56;;;;;;;12.63;3.65;;;;;;;-144.47;68.02;53158.00;4994653;28;20038;-67
2023/01/28 08:45:24;;;;;;;13.18;4.47;;;;;;;-144.47;67.04;53152.03;5006253;28;20045;-66
2023/01/28 08:47:57;;;;;;;10.27;3.38;;;;;;;-144.47;66.54;53179.84;4987932;28;20035;-68
2023/01/28 08:50:25;;;;;;;9.10;2.78;;;;;;;-144.47;67.53;53160.00;4987156;28;20023;-65
2023/01/28 08:52:55;;;;;;;12.60;3.83;;;;;;;-144.47;68.44;53152.03;4996104;28;20095;-68
2023/01/28 08:55:21;;;;;;;6.95;2.10;;;;;;;-144.47;68.79;53165.94;4994433;28;20089;-68
2023/01/28 08:57:46;;;;;;;11.90;3.35;;;;;;;-144.47;67.79;53177.88;4998274;28;20057;-68
2023/01/28 09:00:12;;;;;;;6.43;2.72;;;;;;;-144.47;67.97;53156.00;4993464;28;20026;-68
2023/01/28 09:02:37;;;;;;;14.85;5.25;;;;;;;-144.47;67.25;53132.19;4991677;28;20029;-68
2023/01/28 09:05:04;;;;;;;4.03;1.83;;;;;;;-144.47;67.23;53146.09;4963107;28;1077313;-67
2023/01/28 09:07:30;;;;;;;5.63;2.92;;;;;;;-144.47;67.24;53171.91;4989287;28;20492;-68
2023/01/28 09:09:56;;;;;;;9.63;3.17;;;;;;;-144.47;67.86;53173.88;4988110;28;20014;-68
2023/01/28 09:12:21;;;;;;;13.77;3.72;;;;;;;-144.47;66.57;53144.09;4991895;28;20345;-67
2023/01/28 09:14:47;;;;;;;10.68;3.72;;;;;;;-144.47;65.24;53161.97;4988112;28;20575;-67
2023/01/28 09:17:12;;;;;;;10.57;3.67;;;;;;;-144.47;66.29;53138.13;4987755;28;20044;-67
2023/01/28 09:19:38;;;;;;;7.55;2.58;;;;;;;-144.47;64.52;53156.00;4993049;28;20082;-68
2023/01/28 09:22:03;;;;;;;7.82;2.20;;;;;;;-144.47;63.77;53193.75;4993737;28;20046;-66
2023/01/28 09:24:29;;;;;;;5.75;2.90;;;;;;;-144.47;64.73;53158.00;4996611;28;20022;-66
2023/01/28 09:26:54;;;;;;;9.07;1.98;;;;;;;-144.47;65.54;53128.22;4991924;28;20062;-68
2023/01/28 09:29:20;;;;;;;3.50;2.05;;;;;;;-144.47;66.09;53161.97;4990076;28;20121;-67
2023/01/28 09:31:45;;;;;;;5.30;2.25;;;;;;;-144.47;65.78;53126.22;4991703;28;20334;-67
2023/01/28 09:34:11;;;;;;;9.38;3.33;;;;;;;-144.47;66.55;53171.91;4998166;28;20095;-68
2023/01/28 09:36:36;;;;;;;12.82;4.20;;;;;;;-144.47;66.03;53154.03;4988022;28;20113;-67
2023/01/28 09:39:02;;;;;;;7.50;2.75;;;;;;;-144.47;64.48;53144.09;4985832;28;20038;-66
2023/01/28 09:42:05;;;;;;;5.82;2.28;;;;;;;-144.47;64.07;53098.41;4988139;28;20395;-69
2023/01/28 09:44:55;;;;;;;7.18;2.65;;;;;;;-144.47;64.84;53169.91;4977798;28;20088;-66
2023/01/28 09:47:38;;;;;;;8.25;2.35;;;;;;;-144.47;65.61;53173.88;4988732;28;20055;-66
2023/01/28 09:50:11;;;;;;;6.82;2.15;;;;;;;-144.47;66.27;53142.09;4989952;28;20042;-66
2023/01/28 09:52:40;;;;;;;5.13;1.95;;;;;;;-144.47;66.60;53134.16;4992811;28;20015;-68
2023/01/28 09:55:15;;;;;;;10.02;3.05;;;;;;;-144.47;66.45;53148.06;4995822;28;20045;-68
2023/01/28 09:57:52;;;;;;;6.25;2.40;;;;;;;-144.47;65.62;53163.97;4990981;28;20034;-68
2023/01/28 10:00:21;;;;;;;8.13;3.17;;;;;;;-144.47;65.22;53167.94;4987450;28;20033;-71
2023/01/28 10:02:49;;;;;;;;;;;;;;;-144.47;65.67;53169.91;4992363;28;20117;-72
2023/01/28 10:05:39;;;;;;;12.17;2.07;;;;;;;-144.47;64.90;53156.00;4999485;28;19914;-70
2023/01/28 10:08:33;;;;;;;12.00;3.55;;;;;;;-144.47;64.99;53152.03;4989481;28;20141;-65
2023/01/28 10:11:07;;;;;;;2.92;1.55;;;;;;;-144.47;64.80;53142.09;4974305;28;20401;-68
2023/01/28 10:13:58;;;;;;;4.47;2.25;;;;;;;-144.47;65.06;53165.94;4989430;28;20022;-68
2023/01/28 10:16:41;;;;;;;5.82;2.40;;;;;;;-144.47;64.24;53173.88;4982786;28;20479;-68
2023/01/28 10:19:15;;;;;;;9.02;3.03;;;;;;;-144.47;64.21;53150.06;4987607;28;20141;-66
2023/01/28 10:21:48;;;;;;;5.18;2.20;;;;;;;-144.47;64.94;53163.97;4993088;28;20034;-68
2023/01/28 10:25:02;;;;;;;4.65;1.95;;;;;;;-144.47;63.66;53146.09;4988436;28;20026;-64
2023/01/28 10:27:29;;;;;;;8.90;2.28;;;;;;;-144.47;62.71;53110.31;5006324;28;20037;-68
2023/01/28 10:29:57;;;;;;;12.52;2.60;;;;;;;-144.47;63.68;53161.97;4992455;28;20037;-68
2023/01/28 10:32:34;;;;;;;8.30;2.60;;;;;;;-144.47;63.73;53132.19;4991060;28;20068;-67
2023/01/28 10:35:01;;;;;;;13.50;4.10;;;;;;;-144.47;62.38;53138.13;5001996;28;20042;-68
2023/01/28 10:37:30;;;;;;;8.07;3.35;;;;;;;-144.47;62.28;53144.09;4990765;28;20026;-67
2023/01/28 10:39:58;;;;;;;9.15;3.15;;;;;;;-144.47;63.06;53154.03;4994862;28;20049;-65
2023/01/28 10:42:35;;;;;;;12.02;3.72;;;;;;;-144.47;62.41;53128.22;4995076;28;20030;-66
2023/01/28 10:45:24;;;;;;;8.75;3.72;;;;;;;-144.47;61.90;53124.22;4988933;28;20407;-68
2023/01/28 10:47:55;;;;;;;;;;;;;;;-144.47;62.88;53163.97;4985122;28;20400;-65
2023/01/28 10:50:26;;;;;;;13.68;4.57;;;;;;;-144.47;62.31;53136.16;5002378;28;19925;-65
2023/01/28 10:52:55;;;;;;;17.48;4.22;;;;;;;-144.47;61.93;53163.97;4990508;28;20114;-67
2023/01/28 10:55:21;;;;;;;;;;;;;;;-144.47;61.43;53144.09;4994527;28;20029;-69
2023/01/28 10:57:47;;;;;;;13.10;4.20;;;;;;;-144.47;62.36;53142.09;5009560;28;19913;-66
2023/01/28 11:00:19;;;;;;;13.77;4.20;;;;;;;-144.47;62.41;53140.13;4994043;28;20022;-66
2023/01/28 11:02:47;;;;;;;13.80;4.10;;;;;;;-144.47;62.38;53156.00;5010312;28;20037;-66
2023/01/28 11:05:19;;;;;;;14.27;4.05;;;;;;;-144.47;62.71;53104.38;5003325;28;20042;-65
2023/01/28 11:07:47;;;;;;;7.53;4.13;;;;;;;-144.47;61.88;53179.84;4995025;28;20033;-67
2023/01/28 11:10:33;;;;;;;17.45;5.47;;;;;;;-144.47;62.36;53150.06;4989581;28;20127;-64
2023/01/28 11:13:01;;;;;;;12.82;3.88;;;;;;;-144.47;62.86;53156.00;4998907;28;20037;-69
2023/01/28 11:15:27;;;;;;;11.95;4.20;;;;;;;-144.47;63.08;53120.25;4993889;28;20385;-66
2023/01/28 11:18:06;;;;;;;12.40;3.97;;;;;;;-144.47;61.89;53110.31;4990244;28;20031;-66
2023/01/28 11:20:40;;;;;;;13.43;5.40;;;;;;;-144.47;61.23;53150.06;4993775;28;20105;-67
2023/01/28 11:23:06;;;;;;;44.80;13.93;;;;;;;-144.47;61.54;53118.28;4995654;28;20030;-67
2023/01/28 11:25:34;;;;;;;18.20;6.95;;;;;;;-144.47;60.82;53126.22;4999015;28;20774;-66
2023/01/28 11:28:13;;;;;;;11.00;2.97;;;;;;;-144.47;60.35;53102.38;4992178;28;20054;-66
2023/01/28 11:30:40;;;;;;;6.53;2.95;;;;;;;-144.47;60.19;53126.22;4988560;28;20283;-67
2023/01/28 11:33:11;;;;;;;17.33;3.20;;;;;;;-144.47;60.51;53142.09;4992752;28;20208;-68
2023/01/28 11:35:37;;;;;;;10.10;2.92;;;;;;;-144.47;60.52;53154.03;5000163;28;20049;-67
2023/01/28 11:38:17;;;;;;;10.10;3.00;;;;;;;-144.47;60.85;53150.06;4996784;28;20057;-66
2023/01/28 11:40:53;;;;;;;6.82;3.30;;;;;;;-144.47;60.17;53104.38;4990685;28;20338;-68
2023/01/28 11:43:23;;;;;;;7.53;2.90;;;;;;;-144.47;60.17;53146.09;5002883;28;20022;-68
2023/01/28 11:46:08;;;;;;;13.15;3.55;;;;;;;-144.47;60.23;53106.34;4988194;28;20050;-69
2023/01/28 11:48:43;;;;;;;11.38;3.20;;;;;;;-144.47;59.83;53142.09;4990289;28;20033;-68
2023/01/28 11:51:24;;;;;;;12.40;4.07;;;;;;;-144.47;60.63;53146.09;5009827;28;20045;-67
2023/01/28 11:54:16;;;;;;;8.95;3.45;;;;;;;-144.47;60.76;53122.25;4994094;28;20050;-66
2023/01/28 11:57:08;;;;;;;18.45;3.85;;;;;;;-144.47;60.97;53138.13;4986859;28;20247;-68